createdAt,value
2024-02-16T00:00:32.514Z,4.50
2024-02-16T00:03:02.071Z,4.78
2024-02-16T00:05:30.504Z,4.22
2024-02-16T00:07:59.285Z,4.30
2024-02-16T00:10:27.586Z,5.13
2024-02-16T00:12:56.136Z,4.53
2024-02-16T00:15:25.910Z,4.38
2024-02-16T00:17:54.286Z,4.32
2024-02-16T00:20:25.168Z,4.57
2024-02-16T00:22:54.374Z,4.78
2024-02-16T00:25:22.847Z,4.38
2024-02-16T00:27:52.103Z,4.40
2024-02-16T00:30:20.486Z,4.43
2024-02-16T00:32:50.656Z,4.95
2024-02-16T00:35:20.647Z,5.30
2024-02-16T00:37:49.219Z,4.55
2024-02-16T00:40:17.689Z,4.38
2024-02-16T00:42:46.116Z,5.00
2024-02-16T00:45:14.328Z,4.60
2024-02-16T00:47:42.781Z,4.97
2024-02-16T00:50:14.332Z,4.70
2024-02-16T00:52:42.555Z,5.25
2024-02-16T00:55:11.029Z,5.25
2024-02-16T00:57:39.358Z,5.57
2024-02-16T01:00:10.487Z,5.20
2024-02-16T01:02:39.082Z,5.60
2024-02-16T01:05:11.547Z,4.90
2024-02-16T01:07:43.328Z,5.75
2024-02-16T01:10:14.483Z,5.38
2024-02-16T01:12:42.745Z,6.15
2024-02-16T01:15:12.344Z,5.80
2024-02-16T01:17:41.527Z,5.82
2024-02-16T01:20:13.258Z,5.32
2024-02-16T01:22:43.119Z,5.30
2024-02-16T01:25:11.930Z,5.68
2024-02-16T01:27:42.594Z,5.43
2024-02-16T01:30:11.913Z,5.50
2024-02-16T01:32:40.360Z,5.80
2024-02-16T01:35:09.866Z,6.40
2024-02-16T01:37:38.240Z,6.10
2024-02-16T01:40:10.273Z,6.20
2024-02-16T01:42:38.575Z,6.88
2024-02-16T01:45:07.578Z,6.72
2024-02-16T01:47:36.166Z,6.47
2024-02-16T01:50:05.016Z,6.40
2024-02-16T01:52:35.234Z,6.88
2024-02-16T01:55:04.731Z,6.88
2024-02-16T01:57:35.004Z,7.18
2024-02-16T02:00:04.244Z,7.50
2024-02-16T02:02:33.384Z,6.93
2024-02-16T02:05:02.276Z,6.38
2024-02-16T02:07:30.941Z,6.88
2024-02-16T02:09:59.526Z,7.50
2024-02-16T02:12:28.923Z,6.43
2024-02-16T02:14:58.760Z,7.10
2024-02-16T02:17:27.399Z,6.85
2024-02-16T02:19:56.966Z,6.60
2024-02-16T02:22:28.373Z,6.60
2024-02-16T02:24:57.416Z,6.20
2024-02-16T02:27:25.822Z,6.95
2024-02-16T02:29:54.182Z,6.55
2024-02-16T02:32:22.922Z,7.10
2024-02-16T02:34:51.321Z,6.80
2024-02-16T02:37:19.709Z,7.18
2024-02-16T02:39:49.094Z,6.57
2024-02-16T02:42:17.281Z,7.00
2024-02-16T02:44:51.495Z,6.93
2024-02-16T02:47:20.014Z,7.25
2024-02-16T02:49:48.720Z,6.60
2024-02-16T02:52:18.590Z,7.95
2024-02-16T02:54:48.483Z,6.97
2024-02-16T02:57:16.935Z,6.95
2024-02-16T02:59:46.928Z,7.50
2024-02-16T03:02:15.776Z,8.10
2024-02-16T03:04:44.162Z,8.05
2024-02-16T03:07:12.848Z,9.27
2024-02-16T03:09:43.307Z,8.10
2024-02-16T03:12:13.628Z,8.93
2024-02-16T03:14:41.644Z,9.38
2024-02-16T03:17:10.753Z,9.35
2024-02-16T03:19:39.141Z,9.00
2024-02-16T03:22:07.405Z,9.35
2024-02-16T03:24:35.613Z,10.43
2024-02-16T03:27:03.637Z,9.23
2024-02-16T03:29:33.151Z,9.60
2024-02-16T03:32:01.324Z,9.52
2024-02-16T03:34:30.198Z,8.77
2024-02-16T03:37:00.044Z,9.57
2024-02-16T03:39:28.554Z,9.30
2024-02-16T03:41:57.162Z,9.75
2024-02-16T03:44:25.059Z,10.00
2024-02-16T03:46:56.686Z,9.65
2024-02-16T03:49:25.189Z,10.07
2024-02-16T03:51:53.305Z,9.35
2024-02-16T03:54:21.273Z,9.50
2024-02-16T03:56:49.791Z,9.65
2024-02-16T03:59:17.923Z,9.60
2024-02-16T04:01:47.002Z,9.10
2024-02-16T04:04:16.456Z,9.82
2024-02-16T04:06:44.845Z,9.45
2024-02-16T04:09:13.625Z,9.25
2024-02-16T04:11:42.169Z,10.00
2024-02-16T04:14:11.276Z,9.00
2024-02-16T04:16:39.593Z,9.40
2024-02-16T04:19:08.735Z,10.15
2024-02-16T04:21:38.630Z,9.40
2024-02-16T04:24:07.407Z,9.07
2024-02-16T04:26:36.724Z,8.90
2024-02-16T04:29:06.515Z,9.43
2024-02-16T04:31:35.139Z,9.18
2024-02-16T04:34:03.717Z,9.38
2024-02-16T04:36:32.002Z,8.20
2024-02-16T04:39:01.580Z,8.68
2024-02-16T04:41:29.686Z,8.63
2024-02-16T04:43:58.075Z,9.05
2024-02-16T04:46:26.128Z,8.82
2024-02-16T04:48:54.547Z,8.10
2024-02-16T04:51:22.694Z,8.90
2024-02-16T04:53:50.698Z,9.05
2024-02-16T04:56:20.361Z,8.27
2024-02-16T04:58:49.659Z,8.57
2024-02-16T05:01:18.085Z,7.97
2024-02-16T05:03:46.168Z,7.78
2024-02-16T05:06:14.369Z,8.02
2024-02-16T05:08:42.574Z,8.30
2024-02-16T05:11:11.252Z,8.68
2024-02-16T05:13:43.686Z,8.63
2024-02-16T05:16:12.252Z,8.70
2024-02-16T05:18:40.981Z,8.52
2024-02-16T05:21:10.518Z,8.50
2024-02-16T05:23:38.719Z,8.63
2024-02-16T05:26:06.976Z,8.15
2024-02-16T05:28:35.682Z,8.50
2024-02-16T05:31:16.976Z,8.65
2024-02-16T05:33:46.249Z,8.50
2024-02-16T05:36:14.357Z,8.10
2024-02-16T05:38:44.433Z,7.47
2024-02-16T05:41:12.546Z,7.95
2024-02-16T05:43:41.050Z,7.55
2024-02-16T05:46:15.210Z,7.75
2024-02-16T05:48:44.391Z,7.95
2024-02-16T05:51:14.108Z,7.00
2024-02-16T05:53:42.345Z,8.18
2024-02-16T05:56:11.930Z,7.63
2024-02-16T05:58:40.141Z,7.60
2024-02-16T06:01:09.997Z,7.80
2024-02-16T06:03:39.600Z,7.85
2024-02-16T06:06:09.526Z,7.82
2024-02-16T06:08:37.790Z,8.15
2024-02-16T06:11:09.546Z,8.40
2024-02-16T06:13:37.613Z,7.95
2024-02-16T06:16:09.581Z,8.07
2024-02-16T06:18:39.373Z,8.98
2024-02-16T06:21:07.755Z,8.98
2024-02-16T06:23:37.284Z,8.60
2024-02-16T06:26:09.096Z,8.82
2024-02-16T06:28:37.395Z,8.30
2024-02-16T06:31:06.540Z,8.70
2024-02-16T06:33:35.448Z,8.73
2024-02-16T06:36:06.230Z,8.15
2024-02-16T06:38:34.523Z,9.10
2024-02-16T06:41:04.747Z,9.85
2024-02-16T06:43:33.751Z,8.50
2024-02-16T06:46:03.012Z,8.98
2024-02-16T06:48:31.617Z,8.88
2024-02-16T06:51:00.464Z,8.68
2024-02-16T06:53:30.070Z,8.55
2024-02-16T06:55:58.359Z,9.55
2024-02-16T06:58:26.485Z,9.95
2024-02-16T07:00:55.012Z,8.77
2024-02-16T07:03:25.721Z,8.90
2024-02-16T07:05:57.226Z,8.43
2024-02-16T07:08:27.533Z,8.18
2024-02-16T07:10:57.578Z,8.15
2024-02-16T07:13:26.075Z,7.80
2024-02-16T07:15:54.452Z,7.55
2024-02-16T07:18:22.739Z,7.85
2024-02-16T07:20:51.639Z,8.13
2024-02-16T07:23:19.493Z,8.68
2024-02-16T07:25:47.558Z,7.90
2024-02-16T07:28:16.746Z,8.65
2024-02-16T07:30:44.597Z,8.18
2024-02-16T07:33:12.584Z,8.32
2024-02-16T07:35:40.412Z,7.68
2024-02-16T07:38:08.315Z,8.40
2024-02-16T07:40:36.084Z,9.43
2024-02-16T07:43:05.858Z,8.85
2024-02-16T07:45:35.425Z,8.75
2024-02-16T07:48:06.491Z,8.18
2024-02-16T07:50:34.569Z,8.68
2024-02-16T07:53:02.241Z,8.55
2024-02-16T07:55:30.039Z,8.52
2024-02-16T07:57:58.092Z,8.52
2024-02-16T08:00:26.050Z,8.60
2024-02-16T08:02:55.636Z,8.98
2024-02-16T08:05:24.482Z,9.30
2024-02-16T08:07:52.291Z,9.45
2024-02-16T08:10:22.390Z,9.70
2024-02-16T08:12:50.649Z,10.10
2024-02-16T08:15:24.108Z,9.45
2024-02-16T08:17:52.710Z,9.68
2024-02-16T08:20:22.753Z,11.55
2024-02-16T08:22:50.712Z,9.38
2024-02-16T08:25:18.576Z,9.60
2024-02-16T08:27:46.517Z,9.18
2024-02-16T08:30:15.012Z,10.07
2024-02-16T08:32:43.148Z,9.52
2024-02-16T08:35:11.971Z,9.63
2024-02-16T08:37:41.140Z,9.38
2024-02-16T08:40:15.162Z,9.45
2024-02-16T08:42:43.200Z,9.10
2024-02-16T08:45:11.540Z,9.02
2024-02-16T08:47:40.236Z,9.52
2024-02-16T08:50:08.481Z,8.35
2024-02-16T08:52:36.215Z,9.25
2024-02-16T08:55:05.641Z,9.38
2024-02-16T08:57:35.103Z,9.60
2024-02-16T09:00:03.651Z,9.35
2024-02-16T09:02:31.514Z,9.38
2024-02-16T09:04:59.305Z,9.60
2024-02-16T09:07:28.084Z,9.20
2024-02-16T09:09:57.473Z,8.90
2024-02-16T09:12:26.665Z,8.23
2024-02-16T09:14:54.395Z,9.02
2024-02-16T09:17:22.545Z,9.15
2024-02-16T09:19:50.431Z,9.68
2024-02-16T09:22:18.464Z,9.23
2024-02-16T09:24:48.234Z,8.32
2024-02-16T09:27:16.567Z,8.77
2024-02-16T09:29:45.832Z,8.95
2024-02-16T09:32:13.641Z,8.43
2024-02-16T09:34:43.542Z,9.02
2024-02-16T09:37:12.931Z,8.88
2024-02-16T09:39:42.268Z,9.20
2024-02-16T09:42:11.067Z,8.25
2024-02-16T09:44:39.266Z,7.72
2024-02-16T09:47:11.719Z,7.68
2024-02-16T09:49:40.958Z,8.20
2024-02-16T09:52:13.159Z,7.55
2024-02-16T09:54:41.428Z,7.85
2024-02-16T09:57:09.671Z,8.02
2024-02-16T09:59:37.488Z,8.25
2024-02-16T10:02:08.341Z,8.02
2024-02-16T10:04:37.848Z,8.60
2024-02-16T10:07:10.483Z,8.10
2024-02-16T10:09:42.548Z,8.13
2024-02-16T10:12:11.636Z,7.55
2024-02-16T10:14:42.415Z,7.47
2024-02-16T10:17:11.140Z,8.00
2024-02-16T10:19:42.947Z,7.72
2024-02-16T10:22:12.806Z,7.88
2024-02-16T10:24:42.189Z,7.18
2024-02-16T10:27:17.045Z,7.50
2024-02-16T10:29:46.586Z,7.30
2024-02-16T10:32:15.222Z,7.18
2024-02-16T10:34:47.859Z,7.05
2024-02-16T10:37:15.832Z,7.45
2024-02-16T10:39:45.089Z,6.97
2024-02-16T10:42:14.808Z,6.97
2024-02-16T10:44:44.128Z,7.60
2024-02-16T10:47:12.690Z,6.40
2024-02-16T10:49:40.829Z,6.97
2024-02-16T10:52:10.787Z,6.40
2024-02-16T10:54:40.801Z,5.97
2024-02-16T10:57:10.761Z,6.07
2024-02-16T10:59:45.485Z,6.60
2024-02-16T11:02:13.971Z,6.50
2024-02-16T11:04:42.524Z,6.70
2024-02-16T11:07:18.712Z,6.10
2024-02-16T11:09:49.013Z,7.30
2024-02-16T11:12:17.840Z,6.40
2024-02-16T11:14:47.095Z,6.47
2024-02-16T11:17:15.780Z,7.07
2024-02-16T11:19:44.750Z,6.22
2024-02-16T11:22:18.263Z,6.07
2024-02-16T11:24:47.734Z,6.57
2024-02-16T11:27:20.064Z,6.00
2024-02-16T11:29:48.929Z,6.10
2024-02-16T11:32:17.091Z,5.65
2024-02-16T11:34:45.301Z,5.63
2024-02-16T11:37:15.249Z,5.70
2024-02-16T11:39:46.346Z,5.03
2024-02-16T11:42:16.343Z,4.07
2024-02-16T11:44:54.248Z,3.03
2024-02-16T11:47:26.905Z,3.05
2024-02-16T11:50:03.748Z,2.80
2024-02-16T11:52:33.846Z,2.63
2024-02-16T11:55:04.743Z,2.97
2024-02-16T11:57:33.280Z,2.75
2024-02-16T12:00:05.127Z,2.88
2024-02-16T12:02:34.024Z,2.65
2024-02-16T12:05:04.004Z,2.53
2024-02-16T12:07:35.670Z,2.60
2024-02-16T12:10:06.731Z,2.92
2024-02-16T12:12:36.012Z,2.72
2024-02-16T12:15:04.781Z,2.22
2024-02-16T12:17:32.774Z,2.60
2024-02-16T12:20:00.954Z,2.53
2024-02-16T12:22:28.882Z,2.67
2024-02-16T12:25:00.335Z,2.63
2024-02-16T12:27:29.482Z,3.03
2024-02-16T12:29:57.297Z,2.58
2024-02-16T12:32:25.088Z,2.45
2024-02-16T12:34:53.275Z,2.40
2024-02-16T12:37:21.158Z,2.42
2024-02-16T12:39:49.502Z,2.60
2024-02-16T12:42:18.745Z,2.58
2024-02-16T12:44:47.046Z,2.30
2024-02-16T12:47:16.353Z,2.67
2024-02-16T12:49:44.299Z,2.40
2024-02-16T12:52:12.913Z,2.50
2024-02-16T12:54:40.888Z,2.88
2024-02-16T12:57:14.676Z,3.35
2024-02-16T12:59:43.857Z,2.60
2024-02-16T13:02:11.940Z,2.85
2024-02-16T13:04:41.386Z,2.70
2024-02-16T13:07:09.273Z,3.00
2024-02-16T13:09:37.297Z,2.30
2024-02-16T13:12:05.725Z,2.60
2024-02-16T13:14:33.566Z,2.78
2024-02-16T13:17:02.639Z,3.08
2024-02-16T13:19:30.599Z,2.50
2024-02-16T13:21:58.412Z,2.83
2024-02-16T13:24:26.255Z,2.15
2024-02-16T13:26:54.535Z,2.70
2024-02-16T13:29:22.502Z,2.75
2024-02-16T13:31:50.368Z,2.15
2024-02-16T13:34:19.948Z,2.60
2024-02-16T13:36:47.984Z,2.35
2024-02-16T13:39:17.181Z,2.55
2024-02-16T13:41:47.523Z,2.38
2024-02-16T13:44:15.677Z,2.22
2024-02-16T13:46:43.724Z,2.47
2024-02-16T13:49:11.848Z,2.30
2024-02-16T13:51:41.004Z,2.40
2024-02-16T13:54:09.276Z,2.42
2024-02-16T13:56:39.749Z,2.13
2024-02-16T13:59:08.274Z,2.80
2024-02-16T14:01:36.983Z,2.38
2024-02-16T14:04:05.491Z,2.95
2024-02-16T14:06:33.407Z,2.45
2024-02-16T14:09:02.866Z,2.40
2024-02-16T14:11:30.630Z,2.20
2024-02-16T14:13:58.727Z,2.03
2024-02-16T14:16:26.435Z,2.33
2024-02-16T14:18:54.710Z,2.63
2024-02-16T14:21:25.461Z,2.78
2024-02-16T14:23:54.069Z,2.50
2024-02-16T14:26:23.419Z,2.50
2024-02-16T14:28:51.343Z,2.47
2024-02-16T14:31:21.299Z,2.67
2024-02-16T14:33:49.915Z,3.60
2024-02-16T14:36:17.963Z,2.30
2024-02-16T14:38:45.687Z,2.30
2024-02-16T14:41:13.616Z,2.45
2024-02-16T14:43:42.871Z,2.90
2024-02-16T14:46:11.692Z,2.55
2024-02-16T14:48:40.345Z,2.53
2024-02-16T14:51:08.312Z,2.67
2024-02-16T14:53:36.118Z,2.80
2024-02-16T14:56:04.686Z,2.70
2024-02-16T14:58:32.557Z,2.80
2024-02-16T15:01:02.550Z,2.65
2024-02-16T15:03:31.976Z,3.03
2024-02-16T15:06:00.110Z,3.10
2024-02-16T15:08:28.762Z,3.28
2024-02-16T15:10:56.683Z,3.00
2024-02-16T15:13:25.714Z,2.90
2024-02-16T15:15:54.269Z,2.72
2024-02-16T15:18:23.639Z,3.10
2024-02-16T15:20:54.881Z,3.22
2024-02-16T15:23:23.522Z,3.10
2024-02-16T15:25:51.332Z,3.13
2024-02-16T15:28:19.038Z,3.22
2024-02-16T15:30:46.987Z,2.88
2024-02-16T15:33:14.996Z,3.10
2024-02-16T15:35:44.514Z,3.15
2024-02-16T15:38:12.263Z,3.35
2024-02-16T15:40:39.965Z,3.35
2024-02-16T15:43:09.414Z,3.67
2024-02-16T15:45:41.525Z,3.90
2024-02-16T15:48:10.811Z,4.35
2024-02-16T15:50:38.803Z,4.60
2024-02-16T15:53:08.050Z,5.65
2024-02-16T15:55:36.399Z,5.97
2024-02-16T15:58:04.303Z,4.80
2024-02-16T16:00:32.247Z,3.88
2024-02-16T16:03:01.936Z,4.45
2024-02-16T16:05:31.180Z,4.10
2024-02-16T16:07:59.850Z,3.63
2024-02-16T16:10:29.097Z,4.22
2024-02-16T16:12:57.383Z,3.80
2024-02-16T16:15:25.185Z,3.92
2024-02-16T16:17:52.952Z,4.45
2024-02-16T16:20:20.851Z,4.18
2024-02-16T16:22:48.809Z,4.60
2024-02-16T16:25:17.097Z,4.18
2024-02-16T16:27:48.913Z,4.10
2024-02-16T16:30:17.585Z,4.32
2024-02-16T16:32:45.370Z,5.53
2024-02-16T16:35:13.642Z,3.70
2024-02-16T16:37:41.533Z,4.28
2024-02-16T16:40:10.901Z,4.10
2024-02-16T16:42:39.033Z,3.95
2024-02-16T16:45:09.143Z,4.05
2024-02-16T16:47:37.567Z,4.82
2024-02-16T16:50:08.811Z,4.78
2024-02-16T16:52:36.872Z,4.47
2024-02-16T16:55:06.500Z,4.95
2024-02-16T16:57:34.732Z,4.95
2024-02-16T17:00:03.256Z,4.85
2024-02-16T17:02:32.586Z,5.00
2024-02-16T17:05:00.406Z,4.68
2024-02-16T17:07:28.315Z,5.00
2024-02-16T17:09:58.387Z,5.65
2024-02-16T17:12:27.345Z,5.70
2024-02-16T17:14:55.727Z,5.18
2024-02-16T17:17:24.136Z,5.28
2024-02-16T17:19:53.454Z,5.15
2024-02-16T17:22:21.201Z,5.18
2024-02-16T17:24:49.126Z,5.35
2024-02-16T17:27:17.672Z,5.80
2024-02-16T17:29:46.579Z,6.18
2024-02-16T17:32:14.298Z,6.32
2024-02-16T17:34:42.170Z,6.50
2024-02-16T17:37:12.184Z,5.78
2024-02-16T17:39:42.881Z,6.13
2024-02-16T17:42:11.846Z,6.45
2024-02-16T17:44:39.728Z,6.57
2024-02-16T17:47:07.882Z,6.68
2024-02-16T17:49:35.731Z,7.57
2024-02-16T17:52:03.574Z,7.07
2024-02-16T17:54:33.012Z,7.03
2024-02-16T17:57:02.240Z,6.80
2024-02-16T17:59:29.994Z,7.13
2024-02-16T18:01:57.766Z,6.65
2024-02-16T18:04:25.769Z,7.00
2024-02-16T18:06:53.597Z,6.03
2024-02-16T18:09:22.213Z,6.82
2024-02-16T18:11:51.477Z,6.88
2024-02-16T18:14:19.361Z,6.38
2024-02-16T18:16:47.075Z,7.30
2024-02-16T18:19:14.983Z,6.03
2024-02-16T18:21:42.927Z,6.57
2024-02-16T18:24:11.168Z,6.97
2024-02-16T18:26:39.047Z,7.57
2024-02-16T18:29:09.236Z,6.53
2024-02-16T18:31:38.516Z,6.28
2024-02-16T18:34:06.532Z,6.57
2024-02-16T18:36:34.347Z,6.90
2024-02-16T18:39:03.150Z,6.90
2024-02-16T18:41:30.968Z,6.90
2024-02-16T18:43:58.745Z,6.65
2024-02-16T18:46:27.927Z,6.10
2024-02-16T18:48:55.881Z,6.22
2024-02-16T18:51:23.735Z,6.25
2024-02-16T18:53:51.475Z,6.03
2024-02-16T18:56:20.018Z,6.72
2024-02-16T18:58:47.816Z,6.10
2024-02-16T19:01:19.450Z,6.63
2024-02-16T19:03:49.512Z,6.70
2024-02-16T19:06:17.893Z,6.95
2024-02-16T19:08:45.898Z,7.78
2024-02-16T19:11:13.568Z,7.68
2024-02-16T19:13:41.347Z,7.50
2024-02-16T19:16:09.500Z,7.78
2024-02-16T19:18:38.329Z,7.80
2024-02-16T19:21:08.951Z,8.20
2024-02-16T19:23:37.315Z,8.38
2024-02-16T19:26:06.771Z,7.80
2024-02-16T19:28:39.099Z,8.15
2024-02-16T19:31:07.810Z,8.25
2024-02-16T19:33:36.558Z,7.18
2024-02-16T19:36:05.403Z,7.22
2024-02-16T19:38:36.813Z,6.72
2024-02-16T19:41:05.405Z,6.32
2024-02-16T19:43:36.404Z,6.47
2024-02-16T19:46:04.736Z,7.10
2024-02-16T19:48:32.907Z,6.72
2024-02-16T19:51:01.363Z,6.53
2024-02-16T19:53:29.453Z,7.05
2024-02-16T19:55:58.635Z,7.70
2024-02-16T19:58:27.379Z,6.55
2024-02-16T20:00:55.792Z,6.70
2024-02-16T20:03:24.771Z,7.20
2024-02-16T20:05:54.016Z,7.03
2024-02-16T20:08:22.495Z,7.30
2024-02-16T20:10:52.343Z,7.53
2024-02-16T20:13:21.877Z,7.72
2024-02-16T20:15:50.283Z,7.30
2024-02-16T20:18:20.845Z,7.63
2024-02-16T20:20:48.845Z,7.30
2024-02-16T20:23:18.603Z,7.32
2024-02-16T20:25:47.085Z,6.07
2024-02-16T20:28:15.044Z,6.38
2024-02-16T20:30:44.624Z,6.25
2024-02-16T20:33:13.296Z,6.60
2024-02-16T20:35:42.104Z,6.45
2024-02-16T20:38:09.837Z,6.25
2024-02-16T20:40:37.650Z,6.18
2024-02-16T20:43:05.848Z,6.35
2024-02-16T20:45:34.742Z,6.07
2024-02-16T20:48:06.671Z,5.90
2024-02-16T20:50:35.359Z,5.78
2024-02-16T20:53:03.525Z,6.32
2024-02-16T20:55:31.469Z,6.72
2024-02-16T20:58:00.642Z,6.80
2024-02-16T21:00:28.725Z,6.22
2024-02-16T21:02:56.694Z,6.05
2024-02-16T21:05:25.901Z,5.60
2024-02-16T21:07:55.832Z,6.18
2024-02-16T21:10:24.171Z,5.78
2024-02-16T21:12:52.387Z,5.20
2024-02-16T21:15:20.859Z,5.55
2024-02-16T21:17:48.971Z,5.03
2024-02-16T21:20:17.040Z,5.13
2024-02-16T21:22:46.327Z,4.93
2024-02-16T21:25:14.147Z,4.47
2024-02-16T21:27:42.009Z,4.68
2024-02-16T21:30:10.827Z,4.80
2024-02-16T21:32:38.656Z,5.00
2024-02-16T21:35:07.162Z,5.40
2024-02-16T21:37:36.501Z,5.43
2024-02-16T21:40:06.827Z,5.82
2024-02-16T21:42:34.753Z,5.40
2024-02-16T21:45:02.704Z,5.30
2024-02-16T21:47:30.790Z,5.32
2024-02-16T21:49:58.745Z,5.65
2024-02-16T21:52:26.666Z,4.90
2024-02-16T21:54:54.485Z,4.65
2024-02-16T21:57:25.470Z,3.88
2024-02-16T21:59:53.223Z,3.75
2024-02-16T22:02:21.041Z,3.67
2024-02-16T22:04:48.874Z,4.38
2024-02-16T22:07:17.142Z,4.25
2024-02-16T22:09:45.232Z,4.50
2024-02-16T22:12:13.113Z,4.53
2024-02-16T22:14:42.801Z,4.03
2024-02-16T22:17:11.533Z,4.28
2024-02-16T22:19:39.468Z,4.22
2024-02-16T22:22:07.299Z,3.85
2024-02-16T22:24:35.045Z,3.33
2024-02-16T22:27:03.791Z,2.78
2024-02-16T22:29:31.508Z,3.13
2024-02-16T22:32:11.432Z,3.35
2024-02-16T22:34:44.781Z,3.95
2024-02-16T22:37:12.662Z,4.25
2024-02-16T22:39:40.902Z,4.05
2024-02-16T22:42:08.736Z,4.15
2024-02-16T22:44:36.614Z,4.82
2024-02-16T22:47:06.281Z,5.28
2024-02-16T22:49:34.584Z,5.90
2024-02-16T22:52:02.429Z,5.85
2024-02-16T22:54:30.272Z,6.85
2024-02-16T22:56:58.220Z,6.75
2024-02-16T22:59:25.881Z,8.00
2024-02-16T23:01:53.600Z,7.00
2024-02-16T23:04:22.752Z,7.47
2024-02-16T23:06:50.953Z,7.47
2024-02-16T23:09:18.954Z,7.97
2024-02-16T23:11:47.850Z,8.07
2024-02-16T23:14:19.235Z,8.13
2024-02-16T23:16:48.508Z,8.40
2024-02-16T23:19:16.977Z,9.55
2024-02-16T23:21:47.481Z,9.70
2024-02-16T23:24:15.313Z,9.85
2024-02-16T23:26:43.521Z,11.02
2024-02-16T23:29:12.250Z,12.13
2024-02-16T23:31:40.014Z,12.13
2024-02-16T23:34:08.306Z,12.18
2024-02-16T23:36:36.221Z,12.23
2024-02-16T23:39:05.439Z,11.73
2024-02-16T23:41:33.216Z,13.05
2024-02-16T23:44:02.071Z,12.88
2024-02-16T23:46:30.265Z,12.85
2024-02-16T23:48:58.137Z,13.15
2024-02-16T23:51:25.993Z,13.70
2024-02-16T23:53:53.822Z,12.95
2024-02-16T23:56:22.924Z,13.55
2024-02-16T23:58:50.662Z,13.77
